createdAt,value
2023-04-25T00:02:16.092Z,3.80
2023-04-25T00:04:43.533Z,3.40
2023-04-25T00:07:11.547Z,3.42
2023-04-25T00:09:38.644Z,3.47
2023-04-25T00:12:05.999Z,4.07
2023-04-25T00:14:35.137Z,3.42
2023-04-25T00:17:03.708Z,3.60
2023-04-25T00:19:31.108Z,3.90
2023-04-25T00:21:58.409Z,3.30
2023-04-25T00:24:25.442Z,3.47
2023-04-25T00:26:52.382Z,3.53
2023-04-25T00:29:19.515Z,3.25
2023-04-25T00:31:46.523Z,4.00
2023-04-25T00:34:13.737Z,3.50
2023-04-25T00:36:40.888Z,3.50
2023-04-25T00:39:07.963Z,3.42
2023-04-25T00:41:34.963Z,3.85
2023-04-25T00:44:03.988Z,3.97
2023-04-25T00:46:32.453Z,3.40
2023-04-25T00:48:59.538Z,3.97
2023-04-25T00:51:27.886Z,4.30
2023-04-25T00:53:55.504Z,4.07
2023-04-25T00:56:23.274Z,3.53
2023-04-25T00:58:55.728Z,3.78
2023-04-25T01:01:23.353Z,3.40
2023-04-25T01:03:52.023Z,4.18
2023-04-25T01:06:19.718Z,3.53
2023-04-25T01:08:46.851Z,3.35
2023-04-25T01:11:13.925Z,4.13
2023-04-25T01:13:44.116Z,3.40
2023-04-25T01:16:11.158Z,3.63
2023-04-25T01:18:41.570Z,3.45
2023-04-25T01:21:14.112Z,3.22
2023-04-25T01:23:43.154Z,3.88
2023-04-25T01:26:12.431Z,3.83
2023-04-25T01:28:44.029Z,3.60
2023-04-25T01:31:14.020Z,3.90
2023-04-25T01:33:41.365Z,3.88
2023-04-25T01:36:08.854Z,3.80
2023-04-25T01:38:36.720Z,3.58
2023-04-25T01:41:04.030Z,4.18
2023-04-25T01:43:31.184Z,3.80
2023-04-25T01:45:58.756Z,4.45
2023-04-25T01:48:26.223Z,3.80
2023-04-25T01:50:53.663Z,3.70
2023-04-25T01:53:20.923Z,3.65
2023-04-25T01:55:48.786Z,3.90
2023-04-25T01:58:18.773Z,3.45
2023-04-25T02:01:18.286Z,3.70
2023-04-25T02:03:54.009Z,4.13
2023-04-25T02:06:27.431Z,3.58
2023-04-25T02:08:57.250Z,3.42
2023-04-25T02:11:24.422Z,4.38
2023-04-25T02:14:14.105Z,3.30
2023-04-25T02:16:52.297Z,4.00
2023-04-25T02:19:19.463Z,4.00
2023-04-25T02:21:47.957Z,3.30
2023-04-25T02:24:14.877Z,4.20
2023-04-25T02:26:42.105Z,4.13
2023-04-25T02:29:11.012Z,3.95
2023-04-25T02:31:38.029Z,4.10
2023-04-25T02:34:05.634Z,3.50
2023-04-25T02:36:36.950Z,3.83
2023-04-25T02:39:04.085Z,3.35
2023-04-25T02:41:31.143Z,3.38
2023-04-25T02:43:58.038Z,3.20
2023-04-25T02:46:35.867Z,3.40
2023-04-25T02:49:07.182Z,3.47
2023-04-25T02:51:34.995Z,3.50
2023-04-25T02:54:02.099Z,3.75
2023-04-25T02:56:29.403Z,3.22
2023-04-25T02:58:56.710Z,3.63
2023-04-25T03:01:24.100Z,3.88
2023-04-25T03:03:51.216Z,3.38
2023-04-25T03:06:18.532Z,3.45
2023-04-25T03:08:45.591Z,3.75
2023-04-25T03:11:12.573Z,3.13
2023-04-25T03:13:39.487Z,4.38
2023-04-25T03:16:07.111Z,3.55
2023-04-25T03:18:35.019Z,3.92
2023-04-25T03:21:02.297Z,3.95
2023-04-25T03:23:31.837Z,3.45
2023-04-25T03:25:59.140Z,3.30
2023-04-25T03:28:26.453Z,3.75
2023-04-25T03:30:55.178Z,3.88
2023-04-25T03:33:23.164Z,4.22
2023-04-25T03:35:51.030Z,3.67
2023-04-25T03:38:18.794Z,3.83
2023-04-25T03:40:46.685Z,4.50
2023-04-25T03:43:39.716Z,4.18
2023-04-25T03:46:11.212Z,3.75
2023-04-25T03:48:39.333Z,4.53
2023-04-25T03:51:07.475Z,4.53
2023-04-25T03:53:39.008Z,3.92
2023-04-25T03:56:32.162Z,3.75
2023-04-25T03:59:06.100Z,3.87
2023-04-25T04:01:33.221Z,3.75
2023-04-25T04:04:00.398Z,4.22
2023-04-25T04:06:27.995Z,4.40
2023-04-25T04:09:03.069Z,4.13
2023-04-25T04:11:33.340Z,3.63
2023-04-25T04:14:00.351Z,4.05
2023-04-25T04:16:27.979Z,10.23
2023-04-25T04:18:54.975Z,3.88
2023-04-25T04:21:22.010Z,4.05
2023-04-25T04:23:49.313Z,4.30
2023-04-25T04:26:19.561Z,4.80
2023-04-25T04:29:00.280Z,4.38
2023-04-25T04:31:41.847Z,4.57
2023-04-25T04:34:08.814Z,4.22
2023-04-25T04:36:36.059Z,4.28
2023-04-25T04:39:04.351Z,4.90
2023-04-25T04:41:43.978Z,4.13
2023-04-25T04:44:33.556Z,3.92
2023-04-25T04:47:40.556Z,4.30
2023-04-25T04:50:25.100Z,4.80
2023-04-25T04:53:10.695Z,4.65
2023-04-25T04:55:59.449Z,6.10
2023-04-25T04:58:38.541Z,5.28
2023-04-25T05:01:17.243Z,4.70
2023-04-25T05:04:16.874Z,4.85
2023-04-25T05:06:46.889Z,4.65
2023-04-25T05:09:33.934Z,5.03
2023-04-25T05:12:25.652Z,5.38
2023-04-25T05:15:03.598Z,4.38
2023-04-25T05:17:49.107Z,4.85
2023-04-25T05:20:20.027Z,4.90
2023-04-25T05:23:05.711Z,4.75
2023-04-25T05:28:42.670Z,4.57
2023-04-25T05:31:28.860Z,4.80
2023-04-25T05:34:03.842Z,4.25
2023-04-25T05:36:42.278Z,4.80
2023-04-25T05:39:09.896Z,4.93
2023-04-25T05:41:55.555Z,4.60
2023-04-25T05:44:42.495Z,4.82
2023-04-25T05:47:38.632Z,4.22
2023-04-25T05:50:14.945Z,4.18
2023-04-25T05:52:51.694Z,4.35
2023-04-25T05:55:25.769Z,4.05
2023-04-25T05:57:53.156Z,4.53
2023-04-25T06:00:23.550Z,4.63
2023-04-25T06:02:51.007Z,4.03
2023-04-25T06:05:19.085Z,4.13
2023-04-25T06:07:47.821Z,3.92
2023-04-25T06:10:16.053Z,3.70
2023-04-25T06:12:43.631Z,4.00
2023-04-25T06:15:24.466Z,4.03
2023-04-25T06:17:55.014Z,3.40
2023-04-25T06:20:25.002Z,3.70
2023-04-25T06:22:53.652Z,3.80
2023-04-25T06:25:24.326Z,3.92
2023-04-25T06:27:51.570Z,3.67
2023-04-25T06:30:23.349Z,3.33
2023-04-25T06:32:55.230Z,3.10
2023-04-25T06:35:22.847Z,3.08
2023-04-25T06:37:49.977Z,3.28
2023-04-25T06:40:19.849Z,3.10
2023-04-25T06:42:46.817Z,4.13
2023-04-25T06:45:44.076Z,3.40
2023-04-25T06:48:11.715Z,3.30
2023-04-25T06:50:38.694Z,3.80
2023-04-25T06:53:05.822Z,3.58
2023-04-25T06:55:32.865Z,3.20
2023-04-25T06:58:14.467Z,3.90
2023-04-25T07:03:27.833Z,3.40
2023-04-25T07:06:01.578Z,3.60
2023-04-25T07:08:30.832Z,3.58
2023-04-25T07:10:59.304Z,3.55
2023-04-25T07:13:26.440Z,4.05
2023-04-25T07:15:54.902Z,3.72
2023-04-25T07:18:24.334Z,2.65
2023-04-25T07:20:52.167Z,3.22
2023-04-25T07:23:19.890Z,3.25
2023-04-25T07:25:48.053Z,2.58
2023-04-25T07:28:19.748Z,2.88
2023-04-25T07:30:48.460Z,2.72
2023-04-25T07:33:15.734Z,3.17
2023-04-25T07:35:43.051Z,3.30
2023-04-25T07:38:11.302Z,3.35
2023-04-25T07:40:39.291Z,3.58
2023-04-25T07:43:09.095Z,3.03
2023-04-25T07:45:47.562Z,2.65
2023-04-25T07:48:19.952Z,3.58
2023-04-25T07:50:48.048Z,3.15
2023-04-25T07:53:15.969Z,2.65
2023-04-25T07:55:52.260Z,2.50
2023-04-25T07:58:22.858Z,1.85
2023-04-25T08:00:54.558Z,2.15
2023-04-25T08:03:30.760Z,2.65
2023-04-25T08:05:59.767Z,3.00
2023-04-25T08:08:31.156Z,2.10
2023-04-25T08:10:58.489Z,2.70
2023-04-25T08:13:26.153Z,2.03
2023-04-25T08:15:54.081Z,2.30
2023-04-25T08:18:21.332Z,2.05
2023-04-25T08:20:50.033Z,1.83
2023-04-25T08:23:17.006Z,2.03
2023-04-25T08:26:01.910Z,1.95
2023-04-25T08:28:30.334Z,1.65
2023-04-25T08:31:00.161Z,1.95
2023-04-25T08:33:34.172Z,2.10
2023-04-25T08:36:38.718Z,2.13
2023-04-25T08:39:18.260Z,1.85
2023-04-25T08:42:04.756Z,2.35
2023-04-25T08:44:33.571Z,1.65
2023-04-25T08:47:01.061Z,2.03
2023-04-25T08:49:34.806Z,2.08
2023-04-25T08:52:06.782Z,1.92
2023-04-25T08:54:39.640Z,2.13
2023-04-25T08:57:08.632Z,1.85
2023-04-25T08:59:39.143Z,1.90
2023-04-25T09:02:10.294Z,1.70
2023-04-25T09:04:38.371Z,1.83
2023-04-25T09:07:06.022Z,1.98
2023-04-25T09:09:33.120Z,1.65
2023-04-25T09:12:02.584Z,1.83
2023-04-25T09:14:29.781Z,1.35
2023-04-25T09:17:08.658Z,1.38
2023-04-25T09:19:42.495Z,1.50
2023-04-25T09:22:19.423Z,1.48
2023-04-25T09:24:47.228Z,1.48
2023-04-25T09:27:21.682Z,1.63
2023-04-25T09:30:03.082Z,1.38
2023-04-25T09:32:46.587Z,1.10
2023-04-25T09:35:32.800Z,1.52
2023-04-25T09:38:01.252Z,1.27
2023-04-25T09:41:04.372Z,1.38
2023-04-25T09:43:39.755Z,2.20
2023-04-25T09:46:12.676Z,1.38
2023-04-25T09:48:51.046Z,8.07
2023-04-25T09:51:28.724Z,2.00
2023-04-25T09:53:58.040Z,1.55
2023-04-25T09:56:38.860Z,1.67
2023-04-25T09:59:10.966Z,1.05
2023-04-25T10:01:42.387Z,1.00
2023-04-25T10:04:20.934Z,1.27
2023-04-25T10:07:09.921Z,1.35
2023-04-25T10:09:41.568Z,0.85
2023-04-25T10:12:09.591Z,1.30
2023-04-25T10:14:37.448Z,1.30
2023-04-25T10:17:04.754Z,1.20
2023-04-25T10:19:33.484Z,1.48
2023-04-25T10:22:15.702Z,1.42
2023-04-25T10:24:44.687Z,1.27
2023-04-25T10:27:12.312Z,1.05
2023-04-25T10:29:39.504Z,1.30
2023-04-25T10:32:06.755Z,1.38
2023-04-25T10:34:48.245Z,1.08
2023-04-25T10:37:16.728Z,1.10
2023-04-25T10:39:44.758Z,0.90
2023-04-25T10:42:13.126Z,1.17
2023-04-25T10:44:40.614Z,1.10
2023-04-25T10:47:10.687Z,1.05
2023-04-25T10:49:44.418Z,1.23
2023-04-25T10:52:27.656Z,1.23
2023-04-25T10:54:59.587Z,1.42
2023-04-25T10:57:47.523Z,1.27
2023-04-25T11:00:18.499Z,1.17
2023-04-25T11:02:48.358Z,1.25
2023-04-25T11:05:27.829Z,1.20
2023-04-25T11:10:34.133Z,1.33
2023-04-25T11:13:01.568Z,1.77
2023-04-25T11:15:29.234Z,2.08
2023-04-25T11:17:57.132Z,1.48
2023-04-25T11:20:29.541Z,1.17
2023-04-25T11:23:01.255Z,1.80
2023-04-25T11:25:29.797Z,1.55
2023-04-25T11:28:02.293Z,0.95
2023-04-25T11:30:31.689Z,1.35
2023-04-25T11:32:58.926Z,1.58
2023-04-25T11:35:26.808Z,1.00
2023-04-25T11:37:53.925Z,1.35
2023-04-25T11:40:21.712Z,1.20
2023-04-25T11:42:49.101Z,1.38
2023-04-25T11:45:16.676Z,1.55
2023-04-25T11:47:43.906Z,1.55
2023-04-25T11:50:11.327Z,1.27
2023-04-25T11:52:47.295Z,1.20
2023-04-25T11:55:17.487Z,1.25
2023-04-25T11:57:49.808Z,1.60
2023-04-25T12:00:22.712Z,1.40
2023-04-25T12:03:01.796Z,1.95
2023-04-25T12:05:35.389Z,1.40
2023-04-25T12:08:17.369Z,1.58
2023-04-25T12:10:47.571Z,1.80
2023-04-25T12:13:29.233Z,1.23
2023-04-25T12:15:57.557Z,1.38
2023-04-25T12:18:28.909Z,1.00
2023-04-25T12:20:56.291Z,0.90
2023-04-25T12:23:31.280Z,1.45
2023-04-25T12:28:28.619Z,2.00
2023-04-25T12:31:08.123Z,1.03
2023-04-25T12:33:40.354Z,1.20
2023-04-25T12:36:12.673Z,1.10
2023-04-25T12:38:42.926Z,0.90
2023-04-25T12:41:10.302Z,0.93
2023-04-25T12:43:40.686Z,1.27
2023-04-25T12:46:07.824Z,0.85
2023-04-25T12:48:34.869Z,0.85
2023-04-25T12:51:01.986Z,1.30
2023-04-25T12:53:29.600Z,1.23
2023-04-25T12:55:56.989Z,1.15
2023-04-25T12:58:24.680Z,1.10
2023-04-25T13:00:51.617Z,1.15
2023-04-25T13:03:19.154Z,0.90
2023-04-25T13:05:46.611Z,1.13
2023-04-25T13:08:13.648Z,1.10
2023-04-25T13:10:41.213Z,1.42
2023-04-25T13:13:08.172Z,0.90
2023-04-25T13:15:35.200Z,0.95
2023-04-25T13:18:02.673Z,0.98
2023-04-25T13:20:29.674Z,1.15
2023-04-25T13:22:56.741Z,1.00
2023-04-25T13:25:23.602Z,1.10
2023-04-25T13:27:50.675Z,1.30
2023-04-25T13:30:17.621Z,0.80
2023-04-25T13:32:44.900Z,1.25
2023-04-25T13:35:14.890Z,0.90
2023-04-25T13:37:42.041Z,0.73
2023-04-25T13:40:12.304Z,0.90
2023-04-25T13:42:40.806Z,1.00
2023-04-25T13:45:09.025Z,0.70
2023-04-25T13:47:36.529Z,0.65
2023-04-25T13:50:06.560Z,1.00
2023-04-25T13:52:33.889Z,1.00
2023-04-25T13:55:01.165Z,1.00
2023-04-25T13:57:28.273Z,0.60
2023-04-25T13:59:55.783Z,0.90
2023-04-25T14:02:22.997Z,1.02
2023-04-25T14:04:50.025Z,0.93
2023-04-25T14:07:17.220Z,0.90
2023-04-25T14:09:44.548Z,0.82
2023-04-25T14:12:12.117Z,1.50
2023-04-25T14:14:39.036Z,1.00
2023-04-25T14:17:07.725Z,0.65
2023-04-25T14:19:34.892Z,0.63
2023-04-25T14:22:01.960Z,0.70
2023-04-25T14:24:28.952Z,1.00
2023-04-25T14:26:55.973Z,1.05
2023-04-25T14:29:23.151Z,0.80
2023-04-25T14:31:50.264Z,0.80
2023-04-25T14:34:17.695Z,0.77
2023-04-25T14:36:44.808Z,0.80
2023-04-25T14:39:13.446Z,0.98
2023-04-25T14:41:40.537Z,1.30
2023-04-25T14:44:07.546Z,1.40
2023-04-25T14:46:34.738Z,1.00
2023-04-25T14:49:02.387Z,1.05
2023-04-25T14:51:29.711Z,1.30
2023-04-25T14:53:57.236Z,0.88
2023-04-25T14:56:24.174Z,0.85
2023-04-25T14:58:51.456Z,1.02
2023-04-25T15:01:18.876Z,0.93
2023-04-25T15:03:46.414Z,0.88
2023-04-25T15:06:13.738Z,0.93
2023-04-25T15:08:40.791Z,0.90
2023-04-25T15:11:07.739Z,0.80
2023-04-25T15:13:35.794Z,0.70
2023-04-25T15:16:02.806Z,0.90
2023-04-25T15:18:29.710Z,1.17
2023-04-25T15:20:56.747Z,0.80
2023-04-25T15:23:25.570Z,0.93
2023-04-25T15:25:56.074Z,1.50
2023-04-25T15:28:23.674Z,1.00
2023-04-25T15:30:51.394Z,0.77
2023-04-25T15:33:18.590Z,0.98
2023-04-25T15:35:46.050Z,0.90
2023-04-25T15:38:13.367Z,0.98
2023-04-25T15:40:41.077Z,1.08
2023-04-25T15:43:11.011Z,0.90
2023-04-25T15:45:38.041Z,0.90
2023-04-25T15:48:05.623Z,0.95
2023-04-25T15:50:34.386Z,0.80
2023-04-25T15:53:01.917Z,0.90
2023-04-25T15:55:29.196Z,0.70
2023-04-25T15:57:56.288Z,0.93
2023-04-25T16:00:26.352Z,0.65
2023-04-25T16:02:56.438Z,0.60
2023-04-25T16:05:24.964Z,0.95
2023-04-25T16:07:54.093Z,0.68
2023-04-25T16:10:21.845Z,1.10
2023-04-25T16:12:53.900Z,0.98
2023-04-25T16:15:21.418Z,1.10
2023-04-25T16:17:51.539Z,0.88
2023-04-25T16:20:18.956Z,1.02
2023-04-25T16:22:47.263Z,1.00
2023-04-25T16:25:14.354Z,1.17
2023-04-25T16:27:41.591Z,0.73
2023-04-25T16:30:11.188Z,0.93
2023-04-25T16:32:41.355Z,1.45
2023-04-25T16:35:10.275Z,1.05
2023-04-25T16:37:37.373Z,0.90
2023-04-25T16:40:09.011Z,1.10
2023-04-25T16:42:36.497Z,1.20
2023-04-25T16:45:05.373Z,0.85
2023-04-25T16:47:32.479Z,1.08
2023-04-25T16:50:03.170Z,1.13
2023-04-25T16:52:30.643Z,1.00
2023-04-25T16:54:58.108Z,1.02
2023-04-25T16:57:25.085Z,0.98
2023-04-25T16:59:52.446Z,1.23
2023-04-25T17:02:19.720Z,1.00
2023-04-25T17:04:48.106Z,0.95
2023-04-25T17:07:16.968Z,1.10
2023-04-25T17:09:49.486Z,1.10
2023-04-25T17:12:19.782Z,1.10
2023-04-25T17:14:46.829Z,0.82
2023-04-25T17:17:14.232Z,1.52
2023-04-25T17:19:41.730Z,1.13
2023-04-25T17:22:09.714Z,1.17
2023-04-25T17:24:36.736Z,1.27
2023-04-25T17:27:03.889Z,1.25
2023-04-25T17:29:32.846Z,1.10
2023-04-25T17:31:59.991Z,0.88
2023-04-25T17:34:26.971Z,1.25
2023-04-25T17:36:54.601Z,1.08
2023-04-25T17:39:21.604Z,1.15
2023-04-25T17:41:48.987Z,1.00
2023-04-25T17:44:15.938Z,1.30
2023-04-25T17:46:43.121Z,1.50
2023-04-25T17:49:10.316Z,1.35
2023-04-25T17:51:37.913Z,1.30
2023-04-25T17:54:04.854Z,1.35
2023-04-25T17:56:36.469Z,1.30
2023-04-25T17:59:04.650Z,1.38
2023-04-25T18:01:32.361Z,1.33
2023-04-25T18:03:59.517Z,1.10
2023-04-25T18:06:28.274Z,1.27
2023-04-25T18:08:57.131Z,1.30
2023-04-25T18:11:24.625Z,1.30
2023-04-25T18:13:51.647Z,1.42
2023-04-25T18:16:18.777Z,1.05
2023-04-25T18:18:53.398Z,1.33
2023-04-25T18:21:20.905Z,1.30
2023-04-25T18:23:48.057Z,1.38
2023-04-25T18:26:15.971Z,1.40
2023-04-25T18:28:43.419Z,1.63
2023-04-25T18:31:11.573Z,1.13
2023-04-25T18:33:38.896Z,1.27
2023-04-25T18:36:06.786Z,1.33
2023-04-25T18:38:35.910Z,1.20
2023-04-25T18:41:26.963Z,1.40
2023-04-25T18:43:51.977Z,1.63
2023-04-25T18:46:22.404Z,1.25
2023-04-25T18:48:54.498Z,1.40
2023-04-25T18:51:30.340Z,1.20
2023-04-25T18:54:02.166Z,0.93
2023-04-25T18:56:29.204Z,1.20
2023-04-25T18:58:57.606Z,1.10
2023-04-25T19:01:26.329Z,2.00
2023-04-25T19:03:57.443Z,1.50
2023-04-25T19:06:29.451Z,1.35
2023-04-25T19:08:57.985Z,1.33
2023-04-25T19:11:25.329Z,1.45
2023-04-25T19:13:52.625Z,1.45
2023-04-25T19:16:19.878Z,1.40
2023-04-25T19:18:47.307Z,1.10
2023-04-25T19:21:14.776Z,2.10
2023-04-25T19:23:41.983Z,1.50
2023-04-25T19:26:09.080Z,1.10
2023-04-25T19:28:36.295Z,1.80
2023-04-25T19:31:03.392Z,1.30
2023-04-25T19:33:30.657Z,1.67
2023-04-25T19:35:57.611Z,1.10
2023-04-25T19:38:24.631Z,1.40
2023-04-25T19:40:51.652Z,1.15
2023-04-25T19:43:19.239Z,1.23
2023-04-25T19:45:46.416Z,1.20
2023-04-25T19:48:14.151Z,1.50
2023-04-25T19:50:41.770Z,1.60
2023-04-25T19:53:09.649Z,1.45
2023-04-25T19:55:36.629Z,1.20
2023-04-25T19:58:04.275Z,1.33
2023-04-25T20:00:31.359Z,1.33
2023-04-25T20:02:58.569Z,1.55
2023-04-25T20:05:26.839Z,1.70
2023-04-25T20:07:53.823Z,2.20
2023-04-25T20:10:20.916Z,4.13
2023-04-25T20:12:48.530Z,2.17
2023-04-25T20:15:18.594Z,2.20
2023-04-25T20:17:45.629Z,1.58
2023-04-25T20:20:12.695Z,1.38
2023-04-25T20:22:40.599Z,1.83
2023-04-25T20:25:10.454Z,1.50
2023-04-25T20:27:38.154Z,1.17
2023-04-25T20:30:08.600Z,1.60
2023-04-25T20:32:36.845Z,1.27
2023-04-25T20:35:07.282Z,1.35
2023-04-25T20:37:35.355Z,1.27
2023-04-25T20:40:07.655Z,1.65
2023-04-25T20:42:34.947Z,1.50
2023-04-25T20:45:22.754Z,1.90
2023-04-25T20:47:52.680Z,1.80
2023-04-25T20:50:20.123Z,1.75
2023-04-25T20:52:56.126Z,1.77
2023-04-25T20:55:29.419Z,1.85
2023-04-25T20:57:56.599Z,1.60
2023-04-25T21:00:29.063Z,2.08
2023-04-25T21:02:57.883Z,2.10
2023-04-25T21:05:25.090Z,2.28
2023-04-25T21:07:52.365Z,1.88
2023-04-25T21:10:19.537Z,1.67
2023-04-25T21:12:49.928Z,1.85
2023-04-25T21:15:20.146Z,2.00
2023-04-25T21:17:49.601Z,2.30
2023-04-25T21:20:20.374Z,2.30
2023-04-25T21:22:51.143Z,2.10
2023-04-25T21:25:25.545Z,1.95
2023-04-25T21:27:53.341Z,2.10
2023-04-25T21:30:23.496Z,2.28
2023-04-25T21:32:52.374Z,2.20
2023-04-25T21:35:21.788Z,2.20
2023-04-25T21:37:49.229Z,2.05
2023-04-25T21:40:16.363Z,2.40
2023-04-25T21:42:49.827Z,1.75
2023-04-25T21:45:17.403Z,2.00
2023-04-25T21:47:46.669Z,1.85
2023-04-25T21:50:14.998Z,2.00
2023-04-25T21:52:42.279Z,2.28
2023-04-25T21:55:10.772Z,2.05
2023-04-25T21:57:37.786Z,2.08
2023-04-25T22:00:21.053Z,1.90
2023-04-25T22:02:48.635Z,2.20
2023-04-25T22:05:16.145Z,1.80
2023-04-25T22:07:43.129Z,1.92
2023-04-25T22:10:10.782Z,2.17
2023-04-25T22:12:37.748Z,2.00
2023-04-25T22:15:05.642Z,2.53
2023-04-25T22:17:33.301Z,2.28
2023-04-25T22:20:01.480Z,2.60
2023-04-25T22:22:28.630Z,2.42
2023-04-25T22:24:56.380Z,2.55
2023-04-25T22:27:23.643Z,3.38
2023-04-25T22:29:50.543Z,2.72
2023-04-25T22:32:17.502Z,2.80
2023-04-25T22:34:46.144Z,2.60
2023-04-25T22:37:13.356Z,2.20
2023-04-25T22:39:40.327Z,2.60
2023-04-25T22:42:07.289Z,2.85
2023-04-25T22:44:34.471Z,2.60
2023-04-25T22:47:01.626Z,2.83
2023-04-25T22:49:28.634Z,3.10
2023-04-25T22:51:56.834Z,2.45
2023-04-25T22:54:24.112Z,2.50
2023-04-25T22:56:51.106Z,2.28
2023-04-25T22:59:20.832Z,2.80
2023-04-25T23:01:49.981Z,2.28
2023-04-25T23:04:18.901Z,2.50
2023-04-25T23:06:46.437Z,2.28
2023-04-25T23:09:14.123Z,2.40
2023-04-25T23:11:44.465Z,2.80
2023-04-25T23:14:11.517Z,2.75
2023-04-25T23:16:40.681Z,2.65
2023-04-25T23:19:07.944Z,3.00
2023-04-25T23:21:34.945Z,2.53
2023-04-25T23:24:01.894Z,2.78
2023-04-25T23:26:28.807Z,2.65
2023-04-25T23:28:55.911Z,2.85
2023-04-25T23:31:23.102Z,2.67
2023-04-25T23:33:50.148Z,2.60
2023-04-25T23:36:22.375Z,3.30
2023-04-25T23:38:50.470Z,2.97
2023-04-25T23:41:18.208Z,2.58
2023-04-25T23:43:45.725Z,2.95
2023-04-25T23:46:12.687Z,3.00
2023-04-25T23:48:39.796Z,3.13
2023-04-25T23:51:06.792Z,3.20
2023-04-25T23:53:33.762Z,2.83
2023-04-25T23:56:00.828Z,2.70
2023-04-25T23:58:27.738Z,2.55
